createdAt,value
2018-03-28T00:01:22.863Z,63.63
2018-03-28T00:03:51.043Z,68.90
2018-03-28T00:06:19.109Z,70.57
2018-03-28T00:08:47.289Z,79.47
2018-03-28T00:11:15.249Z,72.33
2018-03-28T00:13:43.523Z,77.90
2018-03-28T00:16:13.010Z,68.43
2018-03-28T00:18:40.965Z,71.20
2018-03-28T00:21:09.475Z,66.57
2018-03-28T00:23:37.656Z,68.80
2018-03-28T00:26:05.620Z,74.90
2018-03-28T00:28:33.790Z,72.70
2018-03-28T00:31:02.049Z,80.83
2018-03-28T00:33:29.935Z,81.30
2018-03-28T00:35:58.721Z,61.67
2018-03-28T00:38:26.794Z,69.20
2018-03-28T00:40:54.655Z,63.20
2018-03-28T00:43:22.696Z,83.63
2018-03-28T00:45:50.601Z,82.03
2018-03-28T00:48:18.568Z,75.20
2018-03-28T00:50:46.840Z,71.87
2018-03-28T00:53:16.007Z,68.70
2018-03-28T00:55:43.901Z,75.37
2018-03-28T00:58:11.770Z,73.27
2018-03-28T01:00:40.151Z,69.83
2018-03-28T01:03:08.323Z,63.77
2018-03-28T01:05:37.010Z,67.53
2018-03-28T01:08:05.181Z,66.73
2018-03-28T01:10:33.045Z,70.87
2018-03-28T01:13:01.122Z,65.97
2018-03-28T01:15:29.205Z,55.63
2018-03-28T01:17:58.288Z,66.00
2018-03-28T01:20:26.595Z,67.77
2018-03-28T01:22:54.830Z,71.60
2018-03-28T01:25:23.005Z,59.40
2018-03-28T01:27:52.405Z,63.20
2018-03-28T01:30:20.746Z,59.83
2018-03-28T01:32:49.060Z,67.90
2018-03-28T01:35:17.239Z,70.40
2018-03-28T01:37:45.311Z,69.23
2018-03-28T01:40:13.486Z,66.57
2018-03-28T01:42:41.650Z,56.60
2018-03-28T01:45:09.831Z,64.87
2018-03-28T01:47:38.000Z,63.77
2018-03-28T01:50:05.965Z,58.83
2018-03-28T01:52:36.390Z,51.30
2018-03-28T01:55:04.366Z,53.37
2018-03-28T01:57:32.925Z,57.43
2018-03-28T02:00:00.895Z,58.53
2018-03-28T02:02:29.290Z,72.50
2018-03-28T02:04:57.465Z,59.93
2018-03-28T02:07:25.540Z,62.27
2018-03-28T02:09:53.400Z,65.13
2018-03-28T02:12:21.575Z,56.50
2018-03-28T02:14:50.260Z,59.47
2018-03-28T02:17:20.350Z,61.37
2018-03-28T02:19:48.615Z,57.87
2018-03-28T02:22:16.535Z,65.27
2018-03-28T02:24:44.655Z,66.50
2018-03-28T02:27:14.565Z,54.70
2018-03-28T02:29:42.680Z,74.20
2018-03-28T02:32:10.758Z,69.57
2018-03-28T02:34:38.921Z,59.57
2018-03-28T02:37:06.995Z,61.90
2018-03-28T02:39:35.445Z,61.83
2018-03-28T02:42:03.750Z,65.73
2018-03-28T02:44:32.740Z,57.27
2018-03-28T02:47:01.125Z,62.97
2018-03-28T02:49:29.291Z,64.47
2018-03-28T02:51:57.129Z,58.93
2018-03-28T02:54:25.230Z,66.43
2018-03-28T02:56:54.120Z,54.93
2018-03-28T02:59:22.295Z,52.50
2018-03-28T03:01:50.853Z,58.37
2018-03-28T03:04:19.460Z,55.00
2018-03-28T03:06:47.616Z,57.70
2018-03-28T03:09:16.015Z,62.33
2018-03-28T03:11:43.979Z,62.83
2018-03-28T03:14:12.767Z,58.87
2018-03-28T03:16:40.854Z,53.40
2018-03-28T03:19:09.220Z,58.03
2018-03-28T03:21:37.494Z,59.60
2018-03-28T03:24:06.275Z,53.90
2018-03-28T03:26:34.313Z,56.50
2018-03-28T03:29:02.625Z,55.33
2018-03-28T03:31:32.230Z,63.67
2018-03-28T03:34:00.410Z,58.87
2018-03-28T03:36:28.550Z,51.27
2018-03-28T03:38:56.925Z,55.40
2018-03-28T03:41:25.235Z,56.97
2018-03-28T03:43:53.150Z,52.83
2018-03-28T03:46:21.245Z,60.87
2018-03-28T03:48:49.749Z,56.83
2018-03-28T03:51:18.204Z,46.93
2018-03-28T03:53:46.623Z,52.10
2018-03-28T03:56:14.780Z,53.40
2018-03-28T03:58:42.898Z,50.70
2018-03-28T04:01:11.025Z,63.13
2018-03-28T04:03:38.896Z,50.23
2018-03-28T04:06:07.245Z,51.40
2018-03-28T04:08:35.754Z,49.63
2018-03-28T04:11:04.125Z,47.23
2018-03-28T04:13:32.100Z,56.67
2018-03-28T04:16:00.950Z,49.80
2018-03-28T04:18:29.164Z,53.03
2018-03-28T04:20:57.236Z,53.23
2018-03-28T04:23:25.308Z,54.30
2018-03-28T04:25:53.544Z,52.37
2018-03-28T04:28:21.851Z,61.80
2018-03-28T04:30:49.719Z,53.20
2018-03-28T04:33:17.891Z,54.93
2018-03-28T04:35:46.056Z,58.67
2018-03-28T04:38:14.140Z,56.30
2018-03-28T04:40:42.315Z,49.67
2018-03-28T04:43:10.995Z,52.27
2018-03-28T04:45:39.387Z,54.10
2018-03-28T04:48:07.506Z,55.47
2018-03-28T04:50:35.516Z,54.70
2018-03-28T04:53:03.790Z,50.53
2018-03-28T04:55:32.072Z,53.73
2018-03-28T04:58:01.788Z,56.83
2018-03-28T05:00:29.651Z,52.20
2018-03-28T05:02:57.611Z,57.30
2018-03-28T05:05:25.479Z,59.33
2018-03-28T05:07:57.135Z,51.73
2018-03-28T05:10:25.218Z,51.60
2018-03-28T05:12:53.554Z,48.40
2018-03-28T05:15:21.399Z,56.27
2018-03-28T05:17:49.629Z,53.30
2018-03-28T05:20:17.766Z,58.63
2018-03-28T05:22:45.745Z,56.03
2018-03-28T05:25:13.833Z,58.37
2018-03-28T05:27:41.906Z,57.03
2018-03-28T05:30:10.143Z,64.13
2018-03-28T05:32:38.260Z,59.30
2018-03-28T05:35:06.935Z,52.10
2018-03-28T05:37:35.160Z,51.00
2018-03-28T05:40:03.391Z,60.77
2018-03-28T05:42:31.459Z,56.67
2018-03-28T05:44:59.423Z,57.63
2018-03-28T05:47:27.674Z,61.83
2018-03-28T05:49:55.877Z,62.97
2018-03-28T05:52:24.763Z,60.93
2018-03-28T05:54:53.839Z,58.70
2018-03-28T05:57:21.684Z,59.60
2018-03-28T05:59:50.294Z,54.93
2018-03-28T06:02:18.592Z,58.37
2018-03-28T06:04:46.867Z,54.90
2018-03-28T06:07:15.109Z,54.37
2018-03-28T06:09:43.120Z,56.93
2018-03-28T06:12:11.281Z,63.10
2018-03-28T06:14:39.425Z,61.10
2018-03-28T06:17:07.625Z,63.77
2018-03-28T06:19:35.796Z,62.03
2018-03-28T06:22:05.100Z,67.60
2018-03-28T06:24:34.394Z,62.53
2018-03-28T06:27:02.712Z,53.47
2018-03-28T06:29:31.460Z,51.37
2018-03-28T06:31:59.407Z,61.57
2018-03-28T06:34:27.813Z,60.07
2018-03-28T06:36:56.168Z,62.63
2018-03-28T06:39:24.359Z,54.93
2018-03-28T06:41:52.223Z,58.43
2018-03-28T06:44:20.404Z,60.63
2018-03-28T06:46:48.572Z,57.43
2018-03-28T06:49:16.745Z,64.07
2018-03-28T06:51:44.717Z,58.93
2018-03-28T06:54:13.158Z,61.90
2018-03-28T06:56:41.315Z,69.60
2018-03-28T06:59:09.231Z,68.30
2018-03-28T07:01:37.305Z,64.77
2018-03-28T07:04:05.349Z,76.03
2018-03-28T07:06:33.921Z,70.20
2018-03-28T07:09:03.652Z,67.90
2018-03-28T07:11:32.025Z,66.73
2018-03-28T07:14:00.320Z,64.30
2018-03-28T07:16:28.594Z,67.03
2018-03-28T07:18:56.666Z,71.70
2018-03-28T07:21:25.036Z,76.57
2018-03-28T07:23:53.317Z,70.07
2018-03-28T07:26:22.556Z,71.10
2018-03-28T07:28:50.580Z,77.53
2018-03-28T07:31:18.760Z,71.43
2018-03-28T07:33:47.192Z,71.03
2018-03-28T07:36:16.793Z,75.67
2018-03-28T07:38:45.232Z,79.73
2018-03-28T07:41:13.558Z,75.63
2018-03-28T07:43:41.913Z,84.57
2018-03-28T07:46:11.112Z,87.37
2018-03-28T07:48:40.425Z,78.60
2018-03-28T07:51:08.858Z,78.60
2018-03-28T07:53:37.748Z,83.10
2018-03-28T07:56:06.233Z,76.73
2018-03-28T07:58:35.212Z,83.23
2018-03-28T08:01:03.753Z,93.47
2018-03-28T08:03:32.312Z,71.80
2018-03-28T08:06:00.556Z,79.57
2018-03-28T08:08:30.885Z,85.27
2018-03-28T08:10:59.155Z,75.47
2018-03-28T08:13:27.228Z,89.27
2018-03-28T08:15:55.502Z,83.03
2018-03-28T08:18:23.877Z,74.13
2018-03-28T08:20:53.369Z,74.57
2018-03-28T08:23:21.834Z,75.57
2018-03-28T08:25:49.942Z,74.30
2018-03-28T08:28:18.128Z,69.97
2018-03-28T08:30:46.369Z,73.43
2018-03-28T08:33:14.768Z,71.60
2018-03-28T08:35:42.642Z,80.00
2018-03-28T08:38:10.569Z,70.27
2018-03-28T08:40:39.009Z,73.43
2018-03-28T08:43:07.678Z,75.30
2018-03-28T08:45:35.848Z,73.80
2018-03-28T08:48:04.015Z,76.70
2018-03-28T08:50:32.164Z,85.23
2018-03-28T08:53:00.359Z,78.90
2018-03-28T08:55:28.429Z,70.47
2018-03-28T08:57:56.399Z,83.30
2018-03-28T09:00:24.465Z,74.70
2018-03-28T09:02:52.934Z,80.17
2018-03-28T09:05:20.820Z,69.90
2018-03-28T09:07:49.205Z,71.87
2018-03-28T09:10:17.580Z,77.67
2018-03-28T09:12:45.644Z,72.93
2018-03-28T09:15:13.511Z,75.67
2018-03-28T09:17:41.763Z,85.83
2018-03-28T09:20:09.950Z,79.87
2018-03-28T09:22:38.033Z,74.73
2018-03-28T09:25:06.328Z,84.83
2018-03-28T09:27:35.478Z,69.93
2018-03-28T09:30:03.902Z,75.30
2018-03-28T09:32:32.570Z,74.90
2018-03-28T09:35:00.948Z,75.23
2018-03-28T09:37:29.125Z,83.83
2018-03-28T09:39:57.426Z,77.57
2018-03-28T09:42:26.083Z,70.00
2018-03-28T09:44:54.109Z,71.03
2018-03-28T09:47:22.225Z,71.77
2018-03-28T09:49:50.398Z,76.97
2018-03-28T09:52:18.848Z,70.60
2018-03-28T09:54:46.940Z,69.07
2018-03-28T09:57:15.020Z,77.03
2018-03-28T09:59:43.295Z,70.20
2018-03-28T10:02:11.466Z,79.47
2018-03-28T10:04:45.173Z,89.17
2018-03-28T10:07:13.454Z,68.93
2018-03-28T10:09:41.473Z,86.47
2018-03-28T10:12:09.689Z,76.93
2018-03-28T10:14:37.972Z,76.27
2018-03-28T10:17:06.210Z,74.73
2018-03-28T10:19:34.321Z,75.10
2018-03-28T10:22:02.180Z,71.80
2018-03-28T10:24:30.353Z,76.97
2018-03-28T10:26:58.634Z,72.80
2018-03-28T10:29:26.879Z,78.27
2018-03-28T10:31:55.283Z,78.13
2018-03-28T10:34:23.461Z,80.27
2018-03-28T10:36:52.529Z,75.37
2018-03-28T10:39:20.623Z,77.50
2018-03-28T10:41:48.802Z,71.40
2018-03-28T10:44:17.070Z,79.07
2018-03-28T10:46:45.255Z,75.80
2018-03-28T10:49:13.709Z,83.20
2018-03-28T10:51:43.025Z,77.77
2018-03-28T10:54:11.097Z,76.07
2018-03-28T10:56:38.961Z,73.73
2018-03-28T10:59:07.098Z,73.57
2018-03-28T11:01:35.826Z,70.77
2018-03-28T11:04:06.168Z,61.70
2018-03-28T11:06:35.304Z,67.20
2018-03-28T11:09:04.136Z,61.13
2018-03-28T11:11:32.736Z,66.40
2018-03-28T11:14:02.061Z,65.47
2018-03-28T11:16:30.945Z,65.70
2018-03-28T11:19:00.059Z,61.43
2018-03-28T11:21:28.745Z,61.87
2018-03-28T11:23:57.216Z,65.77
2018-03-28T11:26:25.984Z,63.43
2018-03-28T11:28:55.472Z,59.60
2018-03-28T11:31:24.176Z,65.57
2018-03-28T11:33:53.778Z,57.67
2018-03-28T11:36:22.967Z,63.90
2018-03-28T11:38:52.297Z,55.83
2018-03-28T11:41:20.858Z,54.53
2018-03-28T11:43:49.255Z,61.70
2018-03-28T11:46:17.811Z,60.93
2018-03-28T11:48:46.988Z,56.67
2018-03-28T11:51:16.542Z,57.00
2018-03-28T11:53:45.181Z,59.07
2018-03-28T11:56:13.936Z,61.17
2018-03-28T11:58:42.175Z,66.07
2018-03-28T12:01:13.294Z,58.03
2018-03-28T12:03:42.738Z,61.17
2018-03-28T12:06:11.615Z,57.27
2018-03-28T12:08:40.247Z,57.53
2018-03-28T12:11:08.975Z,59.33
2018-03-28T12:13:37.937Z,60.23
2018-03-28T12:16:06.464Z,55.93
2018-03-28T12:18:34.823Z,56.03
2018-03-28T12:21:04.220Z,57.63
2018-03-28T12:23:33.216Z,60.67
2018-03-28T12:26:02.496Z,59.50
2018-03-28T12:28:31.336Z,56.53
2018-03-28T12:31:00.504Z,57.67
2018-03-28T12:33:29.697Z,61.47
2018-03-28T12:35:58.856Z,57.00
2018-03-28T12:38:27.536Z,50.70
2018-03-28T12:40:55.577Z,61.50
2018-03-28T12:43:23.811Z,53.37
2018-03-28T12:45:51.981Z,54.80
2018-03-28T12:48:20.388Z,53.50
2018-03-28T12:50:49.036Z,59.80
2018-03-28T12:53:17.282Z,49.93
2018-03-28T12:55:45.391Z,51.30
2018-03-28T12:58:13.534Z,53.43
2018-03-28T13:00:42.034Z,48.37
2018-03-28T13:03:10.216Z,48.87
2018-03-28T13:05:38.295Z,45.23
2018-03-28T13:08:06.445Z,49.07
2018-03-28T13:10:35.553Z,45.67
2018-03-28T13:13:03.929Z,45.93
2018-03-28T13:15:31.798Z,42.30
2018-03-28T13:17:59.663Z,44.23
2018-03-28T13:20:27.803Z,42.83
2018-03-28T13:22:55.704Z,44.53
2018-03-28T13:25:25.656Z,44.70
2018-03-28T13:27:53.910Z,41.47
2018-03-28T13:30:22.146Z,40.43
2018-03-28T13:32:50.348Z,41.07
2018-03-28T13:35:18.520Z,37.50
2018-03-28T13:37:46.949Z,40.87
2018-03-28T13:40:15.067Z,40.63
2018-03-28T13:42:43.037Z,43.30
2018-03-28T13:45:10.901Z,39.17
2018-03-28T13:47:38.975Z,48.50
2018-03-28T13:50:06.987Z,42.40
2018-03-28T13:52:35.730Z,47.23
2018-03-28T13:55:03.997Z,42.93
2018-03-28T13:57:32.173Z,42.03
2018-03-28T14:00:00.151Z,45.63
2018-03-28T14:02:28.427Z,48.90
2018-03-28T14:04:56.501Z,42.60
2018-03-28T14:07:26.652Z,45.10
2018-03-28T14:09:55.603Z,45.00
2018-03-28T14:12:25.021Z,45.70
2018-03-28T14:14:52.977Z,56.37
2018-03-28T14:17:21.156Z,47.50
2018-03-28T14:19:49.730Z,45.40
2018-03-28T14:22:17.700Z,43.47
2018-03-28T14:24:45.810Z,43.60
2018-03-28T14:27:17.357Z,41.13
2018-03-28T14:29:45.906Z,43.40
2018-03-28T14:32:14.728Z,46.70
2018-03-28T14:34:46.782Z,43.60
2018-03-28T14:37:15.241Z,40.93
2018-03-28T14:39:43.210Z,42.50
2018-03-28T14:42:11.462Z,41.47
2018-03-28T14:44:39.351Z,43.20
2018-03-28T14:47:07.310Z,46.00
2018-03-28T14:49:38.024Z,43.73
2018-03-28T14:52:06.141Z,47.20
2018-03-28T14:54:34.196Z,43.20
2018-03-28T14:57:02.368Z,47.13
2018-03-28T14:59:30.856Z,47.57
2018-03-28T15:01:58.920Z,49.00
2018-03-28T15:04:27.031Z,46.70
2018-03-28T15:06:55.888Z,51.93
2018-03-28T15:09:24.976Z,53.70
2018-03-28T15:11:52.946Z,49.97
2018-03-28T15:14:21.221Z,50.00
2018-03-28T15:16:49.193Z,50.77
2018-03-28T15:19:17.165Z,48.90
2018-03-28T15:21:45.549Z,48.67
2018-03-28T15:24:14.436Z,52.00
2018-03-28T15:26:42.401Z,44.17
2018-03-28T15:29:10.365Z,49.90
2018-03-28T15:31:38.381Z,47.70
2018-03-28T15:34:07.333Z,54.30
2018-03-28T15:36:35.396Z,50.93
2018-03-28T15:39:03.339Z,41.37
2018-03-28T15:41:32.930Z,48.20
2018-03-28T15:44:01.046Z,47.90
2018-03-28T15:46:29.013Z,52.73
2018-03-28T15:48:57.705Z,48.77
2018-03-28T15:51:25.667Z,50.70
2018-03-28T15:53:53.743Z,45.10
2018-03-28T15:56:22.430Z,47.67
2018-03-28T15:58:50.393Z,45.40
2018-03-28T16:01:18.983Z,50.03
2018-03-28T16:03:46.951Z,46.43
2018-03-28T16:06:15.283Z,44.33
2018-03-28T16:08:43.407Z,46.47
2018-03-28T16:11:11.664Z,53.45
2018-03-28T16:13:40.061Z,48.33
2018-03-28T16:29:01.648Z,54.90
2018-03-28T16:31:49.069Z,59.13
2018-03-28T16:34:18.559Z,66.00
2018-03-28T16:36:48.639Z,61.83
2018-03-28T16:39:19.071Z,58.10
2018-03-28T16:41:47.806Z,68.10
2018-03-28T16:44:16.431Z,72.27
2018-03-28T16:46:44.638Z,71.20
2018-03-28T16:49:12.830Z,70.17
2018-03-28T16:51:42.783Z,67.43
2018-03-28T16:54:11.790Z,71.03
2018-03-28T16:56:40.398Z,69.07
2018-03-28T17:12:15.839Z,66.03
2018-03-28T17:14:44.848Z,75.07
2018-03-28T17:17:14.771Z,73.17
2018-03-28T17:19:47.759Z,77.63
2018-03-28T17:22:16.878Z,70.87
2018-03-28T17:24:49.604Z,76.70
2018-03-28T17:27:19.838Z,72.87
2018-03-28T17:29:52.207Z,66.57
2018-03-28T17:32:22.958Z,63.60
2018-03-28T17:34:52.352Z,70.73
2018-03-28T17:37:20.543Z,67.67
2018-03-28T17:39:49.422Z,78.20
2018-03-28T17:42:19.570Z,71.33
2018-03-28T17:44:51.487Z,68.60
2018-03-28T17:47:22.850Z,67.73
2018-03-28T17:49:51.760Z,68.57
2018-03-28T17:52:20.302Z,62.63
2018-03-28T17:54:50.558Z,65.70
2018-03-28T17:57:21.582Z,73.47
2018-03-28T17:59:51.263Z,66.10
2018-03-28T18:02:21.359Z,61.70
2018-03-28T18:04:50.302Z,66.60
2018-03-28T18:07:18.430Z,65.07
2018-03-28T18:09:47.183Z,64.53
2018-03-28T18:12:16.239Z,64.47
2018-03-28T18:14:44.303Z,60.63
2018-03-28T18:17:12.590Z,66.43
2018-03-28T18:19:40.702Z,60.80
2018-03-28T18:22:10.702Z,68.47
2018-03-28T18:24:39.055Z,71.53
2018-03-28T18:27:09.683Z,62.70
2018-03-28T18:29:40.976Z,60.23
2018-03-28T18:32:11.150Z,65.83
2018-03-28T18:34:43.610Z,57.90
2018-03-28T18:37:16.607Z,65.80
2018-03-28T18:39:47.919Z,67.57
2018-03-28T18:42:23.278Z,62.07
2018-03-28T18:44:53.918Z,57.97
2018-03-28T18:47:23.711Z,60.87
2018-03-28T18:49:56.031Z,69.50
2018-03-28T18:52:25.502Z,65.97
2018-03-28T18:54:57.040Z,64.10
2018-03-28T18:57:27.910Z,62.93
2018-03-28T18:59:58.367Z,70.93
2018-03-28T19:02:32.866Z,66.70
2018-03-28T19:05:03.358Z,61.90
2018-03-28T19:07:33.310Z,62.23
2018-03-28T19:10:03.770Z,67.33
2018-03-28T19:12:37.722Z,57.83
2018-03-28T19:15:11.248Z,56.90
2018-03-28T19:17:42.478Z,62.67
2018-03-28T19:20:15.582Z,61.27
2018-03-28T19:22:46.271Z,56.87
2018-03-28T19:25:19.103Z,59.83
2018-03-28T19:27:47.471Z,57.70
2018-03-28T19:30:16.714Z,64.37
2018-03-28T19:32:44.887Z,67.17
2018-03-28T19:35:13.210Z,62.40
2018-03-28T19:37:41.272Z,58.50
2018-03-28T19:40:09.343Z,56.40
2018-03-28T19:42:38.087Z,62.77
2018-03-28T19:45:06.510Z,46.50
2018-03-28T19:47:34.723Z,45.97
2018-03-28T19:50:02.958Z,46.00
2018-03-28T19:52:31.155Z,52.13
2018-03-28T19:55:00.047Z,49.23
2018-03-28T19:57:29.174Z,48.87
2018-03-28T19:59:57.487Z,49.33
2018-03-28T20:02:27.422Z,45.57
2018-03-28T20:04:55.806Z,52.30
2018-03-28T20:07:25.038Z,57.50
2018-03-28T20:09:53.071Z,50.30
2018-03-28T20:12:20.990Z,54.80
2018-03-28T20:14:49.198Z,49.73
2018-03-28T20:17:17.399Z,42.73
2018-03-28T20:19:46.688Z,52.20
2018-03-28T20:22:14.807Z,55.20
2018-03-28T20:24:42.702Z,54.50
2018-03-28T20:27:11.102Z,52.37
2018-03-28T20:29:39.240Z,54.10
2018-03-28T20:32:07.647Z,52.70
2018-03-28T20:34:35.599Z,54.50
2018-03-28T20:37:04.446Z,57.10
2018-03-28T20:39:32.590Z,51.33
2018-03-28T20:42:00.967Z,51.23
2018-03-28T20:44:30.340Z,56.73
2018-03-28T20:46:58.318Z,55.50
2018-03-28T20:49:26.223Z,51.13
2018-03-28T20:51:55.102Z,52.33
2018-03-28T20:54:23.039Z,51.90
2018-03-28T20:57:02.570Z,56.27
2018-03-28T20:59:31.071Z,58.53
2018-03-28T21:01:58.830Z,52.97
2018-03-28T21:04:26.798Z,55.27
2018-03-28T21:06:55.150Z,60.30
2018-03-28T21:09:23.310Z,59.50
2018-03-28T21:11:53.278Z,58.73
2018-03-28T21:14:21.343Z,60.20
2018-03-28T21:16:49.519Z,59.67
2018-03-28T21:19:17.686Z,59.13
2018-03-28T21:21:45.663Z,59.80
2018-03-28T21:24:13.806Z,65.30
2018-03-28T21:26:42.110Z,61.87
2018-03-28T21:29:10.295Z,54.93
2018-03-28T21:31:39.070Z,61.63
2018-03-28T21:34:06.943Z,63.23
2018-03-28T21:36:34.798Z,64.20
2018-03-28T21:39:02.750Z,63.23
2018-03-28T21:41:30.639Z,57.47
2018-03-28T21:43:59.102Z,69.33
2018-03-28T21:46:27.559Z,69.93
2018-03-28T21:48:55.662Z,60.37
2018-03-28T21:51:24.038Z,67.13
2018-03-28T21:53:52.262Z,62.80
2018-03-28T21:56:20.704Z,63.17
2018-03-28T21:58:49.713Z,71.93
2018-03-28T22:01:18.954Z,71.73
2018-03-28T22:03:47.618Z,66.73
2018-03-28T22:06:15.751Z,69.43
2018-03-28T22:08:44.626Z,60.70
2018-03-28T22:11:12.910Z,68.63
2018-03-28T22:13:40.888Z,59.80
2018-03-28T22:16:20.127Z,68.47
2018-03-28T22:18:49.114Z,74.30
2018-03-28T22:21:16.894Z,69.77
2018-03-28T22:23:45.643Z,69.80
2018-03-28T22:26:13.556Z,68.07
2018-03-28T22:28:42.604Z,68.33
2018-03-28T22:31:10.576Z,76.20
2018-03-28T22:33:38.647Z,74.37
2018-03-28T22:36:06.535Z,76.47
2018-03-28T22:38:34.583Z,72.37
2018-03-28T22:41:02.554Z,83.20
2018-03-28T22:43:30.524Z,74.50
2018-03-28T22:45:58.806Z,71.43
2018-03-28T22:48:26.862Z,66.80
2018-03-28T22:50:54.934Z,75.73
2018-03-28T22:53:23.102Z,71.00
2018-03-28T22:55:50.879Z,73.73
2018-03-28T22:58:18.838Z,82.03
2018-03-28T23:00:46.729Z,77.43
2018-03-28T23:03:14.582Z,75.60
2018-03-28T23:05:42.443Z,74.27
2018-03-28T23:08:10.203Z,72.87
2018-03-28T23:10:38.273Z,74.50
2018-03-28T23:13:06.343Z,84.03
2018-03-28T23:15:34.525Z,73.10
2018-03-28T23:18:02.529Z,77.20
2018-03-28T23:20:30.979Z,83.73
2018-03-28T23:22:58.839Z,80.87
2018-03-28T23:25:26.845Z,84.23
2018-03-28T23:27:55.719Z,77.63
2018-03-28T23:30:24.689Z,86.87
2018-03-28T23:32:52.459Z,74.27
2018-03-28T23:35:20.518Z,84.63
2018-03-28T23:37:48.488Z,88.13
2018-03-28T23:40:16.762Z,79.63
2018-03-28T23:42:44.651Z,85.60
2018-03-28T23:45:12.740Z,86.60
2018-03-28T23:47:41.404Z,75.00
2018-03-28T23:50:10.210Z,80.70
2018-03-28T23:52:38.967Z,86.40
2018-03-28T23:55:07.267Z,90.50
2018-03-28T23:57:35.101Z,89.00
